Time;durP1;ratioP1;P1;durP2;ratioP2;P2;SDS_P1;SDS_P2;PMS_P1;PMS_P2;Temp;Humidity;BMP_temperature;BMP_pressure;BME280_temperature;BME280_humidity;BME280_pressure;Samples;Min_cycle;Max_cycle;Signal;HPM_P1;HPM_P2
2022/09/21 00:00:44;;;;;;;0.10;0.10;;;22.00;58.80;;;;;;5005261;28;20104;-58
2022/09/21 00:03:09;;;;;;;0.20;0.20;;;22.00;59.40;;;;;;5005414;28;20085;-54
2022/09/21 00:05:36;;;;;;;0.20;0.20;;;22.00;58.80;;;;;;5005633;28;20073;-50
2022/09/21 00:08:02;;;;;;;0.17;0.17;;;22.00;58.80;;;;;;5004182;28;20053;-55
2022/09/21 00:10:28;;;;;;;0.30;0.30;;;22.00;58.80;;;;;;5006702;28;20053;-53
2022/09/21 00:12:54;;;;;;;0.20;0.20;;;22.00;58.80;;;;;;5002705;28;20054;-59
2022/09/21 00:15:20;;;;;;;0.25;0.25;;;22.00;58.90;;;;;;5006074;28;20846;-60
2022/09/21 00:17:48;;;;;;;0.20;0.20;;;22.00;58.80;;;;;;5004415;28;20045;-53
2022/09/21 00:20:14;;;;;;;0.25;0.20;;;22.00;58.90;;;;;;5002913;28;20554;-54
2022/09/21 00:22:40;;;;;;;0.20;0.20;;;22.00;58.80;;;;;;5005366;28;20046;-60
2022/09/21 00:25:07;;;;;;;0.20;0.20;;;22.00;59.00;;;;;;5002878;28;20090;-56
2022/09/21 00:27:33;;;;;;;0.10;0.10;;;22.00;58.90;;;;;;5004714;28;20887;-55
2022/09/21 00:30:02;;;;;;;0.20;0.20;;;22.00;58.80;;;;;;5006661;28;20624;-57
2022/09/21 00:32:30;;;;;;;0.82;0.20;;;22.00;59.00;;;;;;4987990;28;20089;-59
2022/09/21 00:34:56;;;;;;;0.35;0.20;;;21.90;59.00;;;;;;5006600;28;20081;-59
2022/09/21 00:37:21;;;;;;;2.03;0.20;;;22.00;59.00;;;;;;5001324;28;20034;-59
2022/09/21 00:39:47;;;;;;;0.20;0.20;;;21.90;59.00;;;;;;5004960;28;20061;-56
2022/09/21 00:42:20;;;;;;;0.30;0.30;;;21.90;59.00;;;;;;5003469;28;20042;-55
2022/09/21 00:44:46;;;;;;;0.10;0.10;;;21.90;59.10;;;;;;5004513;28;20392;-56
2022/09/21 00:47:13;;;;;;;0.32;0.32;;;21.90;59.10;;;;;;5008685;28;20084;-60
2022/09/21 00:49:40;;;;;;;0.20;0.20;;;21.90;59.00;;;;;;5002953;28;20054;-54
2022/09/21 00:52:06;;;;;;;0.20;0.20;;;21.90;59.00;;;;;;5018174;28;20125;-55
2022/09/21 00:54:37;;;;;;;0.20;0.20;;;21.90;59.10;;;;;;5019584;28;20048;-45
2022/09/21 00:57:03;;;;;;;0.25;0.20;;;21.90;59.10;;;;;;5019145;28;20041;-58
2022/09/21 00:59:30;;;;;;;0.17;0.17;;;21.90;59.10;;;;;;5005591;28;20073;-37
2022/09/21 01:01:55;;;;;;;0.20;0.20;;;21.90;59.10;;;;;;5022778;28;20097;-33
2022/09/21 01:04:21;;;;;;;0.10;0.10;;;21.90;59.10;;;;;;5010996;28;20606;-35
2022/09/21 01:06:47;;;;;;;0.20;0.20;;;21.90;59.10;;;;;;5028779;28;20049;-37
2022/09/21 01:09:13;;;;;;;0.30;0.30;;;21.90;59.10;;;;;;4998551;28;20054;-36
2022/09/21 01:11:50;;;;;;;0.20;0.20;;;21.90;59.10;;;;;;5001170;28;20046;-37
2022/09/21 01:14:46;;;;;;;0.30;0.30;;;21.90;59.30;;;;;;5003460;28;20038;-37
2022/09/21 01:17:35;;;;;;;0.30;0.30;;;21.90;59.30;;;;;;5005120;28;20054;-38
2022/09/21 01:20:16;;;;;;;0.10;0.10;;;21.90;59.20;;;;;;5020871;28;20135;-37
2022/09/21 01:23:06;;;;;;;0.20;0.20;;;21.90;59.20;;;;;;5003902;28;20045;-36
2022/09/21 01:26:10;;;;;;;1.33;0.20;;;21.90;59.30;;;;;;5006228;28;20034;-36
2022/09/21 01:29:09;;;;;;;0.20;0.20;;;21.90;59.30;;;;;;5005403;28;20529;-38
2022/09/21 01:31:47;;;;;;;1.10;0.30;;;21.90;59.30;;;;;;5003522;28;20073;-38
2022/09/21 01:34:48;;;;;;;0.30;0.25;;;21.80;59.40;;;;;;5001812;28;20041;-42
2022/09/21 01:37:19;;;;;;;2.00;0.50;;;21.90;59.20;;;;;;4999989;28;20530;-36
2022/09/21 01:39:46;;;;;;;0.10;0.10;;;21.80;59.20;;;;;;4987423;28;20072;-40
2022/09/21 01:42:12;;;;;;;0.68;0.20;;;21.80;59.30;;;;;;5003302;28;20056;-35
2022/09/21 01:44:38;;;;;;;0.20;0.20;;;21.80;59.20;;;;;;5016099;28;20045;-25
2022/09/21 01:47:03;;;;;;;0.20;0.20;;;21.80;59.20;;;;;;4989413;28;20388;-37
2022/09/21 01:49:33;;;;;;;0.13;0.13;;;21.80;59.30;;;;;;4985844;28;20046;-37
2022/09/21 01:52:01;;;;;;;0.30;0.30;;;21.80;59.30;;;;;;5016304;28;20038;-36
2022/09/21 01:54:36;;;;;;;0.20;0.20;;;21.80;59.20;;;;;;5001226;28;20056;-39
2022/09/21 01:57:04;;;;;;;0.30;0.30;;;21.80;59.80;;;;;;5027024;28;20506;-38
2022/09/21 01:59:48;;;;;;;0.20;0.20;;;21.80;59.10;;;;;;5023127;28;20049;-39
2022/09/21 02:02:30;;;;;;;0.15;0.15;;;21.80;59.20;;;;;;5003334;28;20550;-36
2022/09/21 02:04:58;;;;;;;0.38;0.20;;;21.80;59.20;;;;;;5003192;28;20054;-37
2022/09/21 02:07:24;;;;;;;0.63;0.22;;;21.80;59.10;;;;;;5000893;28;20111;-37
2022/09/21 02:09:49;;;;;;;0.10;0.10;;;21.80;59.20;;;;;;5014307;28;20407;-38
2022/09/21 02:12:15;;;;;;;1.48;0.20;;;21.80;59.20;;;;;;5027770;28;20570;-37
2022/09/21 02:14:40;;;;;;;0.28;0.20;;;21.80;59.20;;;;;;4998601;28;20416;-39
2022/09/21 02:17:15;;;;;;;0.10;0.10;;;21.80;59.40;;;;;;5004391;28;20046;-38
2022/09/21 02:20:18;;;;;;;0.30;0.30;;;21.80;59.20;;;;;;5001256;28;20077;-35
2022/09/21 02:22:53;;;;;;;0.20;0.20;;;21.80;59.30;;;;;;5000972;28;20403;-37
2022/09/21 02:25:48;;;;;;;0.20;0.20;;;21.80;59.20;;;;;;4998318;28;20042;-37
2022/09/21 02:28:34;;;;;;;0.10;0.10;;;21.80;59.20;;;;;;5026712;28;20149;-38
2022/09/21 02:31:21;;;;;;;0.20;0.20;;;21.80;59.40;;;;;;5017411;28;20049;-37
2022/09/21 02:34:02;;;;;;;0.10;0.10;;;21.80;60.00;;;;;;5014391;28;20136;-38
2022/09/21 02:36:32;;;;;;;0.20;0.20;;;21.80;59.20;;;;;;5014188;28;20030;-34
2022/09/21 02:39:15;;;;;;;0.20;0.20;;;21.80;59.20;;;;;;5013440;28;20034;-36
2022/09/21 02:42:07;;;;;;;0.17;0.10;;;21.80;59.30;;;;;;5014248;28;20054;-34
2022/09/21 02:44:42;;;;;;;0.20;0.20;;;21.70;59.30;;;;;;5002952;28;20113;-37
2022/09/21 02:47:17;;;;;;;0.20;0.20;;;21.70;59.40;;;;;;5001188;28;20065;-37
2022/09/21 02:49:45;;;;;;;0.20;0.20;;;21.70;59.30;;;;;;5005174;28;20137;-37
2022/09/21 02:52:15;;;;;;;0.30;0.20;;;21.80;59.30;;;;;;5017818;28;20046;-38
2022/09/21 02:54:42;;;;;;;0.20;0.20;;;21.80;59.50;;;;;;4999640;28;20037;-43
2022/09/21 02:57:07;;;;;;;0.20;0.20;;;21.70;59.40;;;;;;5020643;28;20144;-34
2022/09/21 02:59:33;;;;;;;0.30;0.20;;;21.80;59.40;;;;;;5013057;28;20157;-37
2022/09/21 03:01:58;;;;;;;0.75;0.17;;;21.70;59.40;;;;;;5005217;28;20045;-35
2022/09/21 03:04:24;;;;;;;0.10;0.10;;;21.70;59.30;;;;;;5015172;28;20042;-35
2022/09/21 03:06:50;;;;;;;0.25;0.20;;;21.80;59.30;;;;;;5000624;28;20440;-36
2022/09/21 03:09:16;;;;;;;0.17;0.10;;;21.70;59.40;;;;;;5002933;28;20046;-38
2022/09/21 03:11:42;;;;;;;0.10;0.10;;;21.80;59.30;;;;;;5000419;28;20130;-38
2022/09/21 03:14:07;;;;;;;0.10;0.10;;;21.70;59.30;;;;;;5003368;28;20054;-36
2022/09/21 03:16:36;;;;;;;0.10;0.10;;;21.70;59.40;;;;;;5004768;28;20030;-39
2022/09/21 03:19:02;;;;;;;0.68;0.20;;;21.70;59.30;;;;;;4999098;28;20065;-39
2022/09/21 03:21:28;;;;;;;0.20;0.17;;;21.70;59.30;;;;;;5008005;28;20483;-36
2022/09/21 03:23:54;;;;;;;0.20;0.10;;;21.70;60.00;;;;;;5005079;28;20052;-37
2022/09/21 03:26:21;;;;;;;0.10;0.10;;;21.80;59.40;;;;;;5005639;28;20065;-36
2022/09/21 03:28:48;;;;;;;0.20;0.20;;;21.70;60.00;;;;;;5006608;28;20415;-40
2022/09/21 03:31:13;;;;;;;0.25;0.25;;;21.70;59.40;;;;;;5007240;28;20049;-39
2022/09/21 03:33:39;;;;;;;0.20;0.20;;;21.70;59.30;;;;;;5003817;28;20052;-36
2022/09/21 03:36:04;;;;;;;0.20;0.20;;;21.70;59.20;;;;;;5006219;28;20049;-40
2022/09/21 03:38:30;;;;;;;0.20;0.20;;;21.70;59.20;;;;;;5006294;28;20969;-37
2022/09/21 03:40:56;;;;;;;0.10;0.10;;;21.70;59.40;;;;;;5008539;28;20052;-37
2022/09/21 03:43:22;;;;;;;0.20;0.20;;;21.70;59.40;;;;;;5003157;28;20046;-36
2022/09/21 03:45:48;;;;;;;0.40;0.40;;;21.60;59.40;;;;;;5007328;28;20515;-37
2022/09/21 03:48:14;;;;;;;0.17;0.17;;;21.70;59.50;;;;;;5002890;28;20045;-37
2022/09/21 03:50:39;;;;;;;0.10;0.10;;;21.70;59.50;;;;;;5004813;28;20038;-38
2022/09/21 03:53:05;;;;;;;0.10;0.10;;;21.60;59.40;;;;;;5004997;28;20128;-37
2022/09/21 03:55:32;;;;;;;0.10;0.10;;;21.60;59.40;;;;;;5002395;28;20547;-41
2022/09/21 03:57:57;;;;;;;0.20;0.20;;;21.70;59.40;;;;;;5002277;28;20484;-37
2022/09/21 04:00:23;;;;;;;0.20;0.20;;;21.70;59.40;;;;;;5006101;28;20042;-38
2022/09/21 04:02:48;;;;;;;0.20;0.20;;;21.70;59.30;;;;;;5005674;28;20041;-38
2022/09/21 04:05:14;;;;;;;0.30;0.20;;;21.70;60.10;;;;;;5006213;28;20044;-37
2022/09/21 04:07:40;;;;;;;1.52;0.20;;;21.70;59.30;;;;;;5006305;28;20053;-35
2022/09/21 04:10:07;;;;;;;0.20;0.20;;;21.70;59.80;;;;;;5004920;28;20066;-36
2022/09/21 04:12:33;;;;;;;0.20;0.20;;;21.70;59.30;;;;;;5003151;28;20042;-37
2022/09/21 04:15:00;;;;;;;0.32;0.10;;;21.70;59.40;;;;;;5006498;28;20530;-38
2022/09/21 04:17:26;;;;;;;0.30;0.30;;;21.60;59.40;;;;;;5005171;28;20049;-40
2022/09/21 04:19:51;;;;;;;0.20;0.20;;;21.60;59.30;;;;;;5008971;28;20041;-35
2022/09/21 04:22:17;;;;;;;0.20;0.20;;;21.70;59.30;;;;;;5003504;28;20507;-36
2022/09/21 04:24:43;;;;;;;0.10;0.10;;;21.60;59.90;;;;;;5003094;28;20588;-37
2022/09/21 04:27:09;;;;;;;0.20;0.20;;;21.60;59.40;;;;;;5005112;28;20183;-42
2022/09/21 04:29:35;;;;;;;0.15;0.15;;;21.60;59.30;;;;;;5005160;28;20080;-37
2022/09/21 04:32:00;;;;;;;0.10;0.10;;;21.70;59.20;;;;;;5006137;28;20495;-38
2022/09/21 04:34:26;;;;;;;1.23;0.20;;;21.60;59.20;;;;;;5000837;28;20060;-37
2022/09/21 04:36:55;;;;;;;0.10;0.10;;;21.60;59.10;;;;;;5005196;28;20107;-38
2022/09/21 04:39:20;;;;;;;0.20;0.20;;;21.70;59.30;;;;;;5003127;28;20101;-36
2022/09/21 04:41:46;;;;;;;0.20;0.20;;;21.60;59.30;;;;;;5002505;28;20192;-32
2022/09/21 04:44:12;;;;;;;0.20;0.20;;;21.60;59.20;;;;;;5003833;28;20057;-34
2022/09/21 04:46:37;;;;;;;0.10;0.10;;;21.60;59.20;;;;;;5006327;28;20048;-38
2022/09/21 04:49:03;;;;;;;0.10;0.10;;;21.60;59.10;;;;;;5003429;28;20458;-42
2022/09/21 04:51:28;;;;;;;0.30;0.30;;;21.60;59.30;;;;;;5002688;28;20049;-38
2022/09/21 04:53:54;;;;;;;0.10;0.10;;;21.60;59.30;;;;;;5002152;28;20509;-36
2022/09/21 04:56:19;;;;;;;0.10;0.10;;;21.60;59.20;;;;;;5003456;28;20069;-37
2022/09/21 04:58:45;;;;;;;0.20;0.15;;;21.60;59.30;;;;;;5004511;28;20048;-38
2022/09/21 05:01:11;;;;;;;0.20;0.20;;;21.60;59.20;;;;;;5002465;28;20049;-37
2022/09/21 05:03:37;;;;;;;0.20;0.20;;;21.60;59.10;;;;;;5001325;28;20066;-38
2022/09/21 05:06:02;;;;;;;0.17;0.17;;;21.60;59.70;;;;;;5004024;28;20597;-37
2022/09/21 05:11:19;;;;;;;0.10;0.10;;;21.60;59.10;;;;;;5004539;28;20091;-40
2022/09/21 05:13:45;;;;;;;0.10;0.10;;;21.60;59.20;;;;;;5005969;28;20042;-35
2022/09/21 05:16:11;;;;;;;0.95;0.28;;;21.60;59.20;;;;;;5005087;28;20088;-35
2022/09/21 05:18:36;;;;;;;0.40;0.10;;;21.60;59.30;;;;;;5001257;28;20042;-36
2022/09/21 05:21:02;;;;;;;0.10;0.10;;;21.60;59.20;;;;;;5002340;28;20749;-40
2022/09/21 05:23:28;;;;;;;0.10;0.10;;;21.60;59.30;;;;;;5001270;28;20058;-37
2022/09/21 05:25:54;;;;;;;0.10;0.10;;;21.60;59.30;;;;;;5007440;28;20499;-37
2022/09/21 05:28:20;;;;;;;0.30;0.20;;;21.60;59.20;;;;;;5005094;28;20065;-38
2022/09/21 05:31:06;;;;;;;0.10;0.10;;;21.50;59.30;;;;;;5003622;28;20069;-40
2022/09/21 05:33:32;;;;;;;0.20;0.10;;;21.60;59.20;;;;;;4992671;28;20189;-38
2022/09/21 05:36:29;;;;;;;0.10;0.10;;;21.60;59.20;;;;;;4299735;28;10001249;-38
2022/09/21 05:38:55;;;;;;;0.43;0.20;;;21.60;59.40;;;;;;5004363;28;20053;-35
2022/09/21 05:41:21;;;;;;;0.20;0.20;;;21.50;59.50;;;;;;4995026;28;20456;-38
2022/09/21 05:43:47;;;;;;;1.55;0.20;;;21.50;59.60;;;;;;4995570;28;20588;-38
2022/09/21 05:46:41;;;;;;;0.38;0.10;;;21.50;59.50;;;;;;4994500;28;20082;-40
2022/09/21 05:49:17;;;;;;;0.10;0.10;;;21.50;59.40;;;;;;4991481;28;20050;-37
2022/09/21 05:51:58;;;;;;;0.45;0.10;;;21.50;59.40;;;;;;5022525;28;20048;-36
2022/09/21 05:54:35;;;;;;;0.52;0.13;;;21.50;59.20;;;;;;4994801;28;20046;-36
2022/09/21 05:57:21;;;;;;;0.30;0.10;;;21.40;59.00;;;;;;5006854;28;20045;-40
2022/09/21 06:00:12;;;;;;;0.20;0.20;;;21.40;58.80;;;;;;4996171;28;20633;-36
2022/09/21 06:02:40;;;;;;;0.22;0.20;;;21.40;58.80;;;;;;4992916;28;20057;-37
2022/09/21 06:05:10;;;;;;;1.85;0.43;;;21.40;58.30;;;;;;4998128;28;20054;-37
2022/09/21 06:07:35;;;;;;;0.20;0.20;;;21.40;58.20;;;;;;5008552;28;20145;-37
2022/09/21 06:10:01;;;;;;;0.35;0.30;;;21.40;58.00;;;;;;4985821;28;20060;-38
2022/09/21 06:12:26;;;;;;;0.15;0.15;;;21.40;57.80;;;;;;4990893;28;20069;-36
2022/09/21 06:14:52;;;;;;;0.30;0.30;;;21.40;57.80;;;;;;4992001;28;20129;-36
2022/09/21 06:17:18;;;;;;;0.30;0.30;;;21.40;57.80;;;;;;4998657;28;20042;-37
2022/09/21 06:19:44;;;;;;;0.30;0.25;;;21.40;57.50;;;;;;4995649;28;20136;-40
2022/09/21 06:22:09;;;;;;;0.40;0.32;;;21.30;57.50;;;;;;4999361;28;21589;-36
2022/09/21 06:24:35;;;;;;;0.47;0.30;;;21.30;57.20;;;;;;4997318;28;20219;-38
2022/09/21 06:27:00;;;;;;;0.40;0.40;;;21.30;57.50;;;;;;4998563;28;20061;-37
2022/09/21 06:29:26;;;;;;;0.77;0.38;;;21.30;56.90;;;;;;5000798;28;20041;-37
2022/09/21 06:31:52;;;;;;;0.20;0.20;;;21.30;57.10;;;;;;5004365;28;20507;-40
2022/09/21 06:34:17;;;;;;;0.30;0.30;;;21.30;57.10;;;;;;4995683;28;20080;-34
2022/09/21 06:36:44;;;;;;;0.40;0.30;;;21.30;57.00;;;;;;4999219;28;20036;-36
2022/09/21 06:39:10;;;;;;;1.45;0.30;;;21.40;56.60;;;;;;5001872;28;20061;-36
2022/09/21 06:41:35;;;;;;;0.40;0.40;;;21.20;55.90;;;;;;4999534;28;20050;-40
2022/09/21 06:44:01;;;;;;;0.20;0.20;;;21.20;56.70;;;;;;4998524;28;20077;-37
2022/09/21 06:46:27;;;;;;;0.47;0.40;;;21.20;56.90;;;;;;5000415;28;20049;-37
2022/09/21 06:48:53;;;;;;;0.32;0.20;;;21.20;56.90;;;;;;5001650;28;20907;-41
2022/09/21 06:51:20;;;;;;;0.20;0.20;;;21.20;56.90;;;;;;5002677;28;20042;-39
2022/09/21 06:53:46;;;;;;;1.05;0.50;;;21.30;57.00;;;;;;5002183;28;20050;-36
2022/09/21 06:56:12;;;;;;;0.30;0.30;;;21.30;57.60;;;;;;5004509;28;20099;-40
2022/09/21 06:58:37;;;;;;;0.45;0.10;;;21.30;57.00;;;;;;5003626;28;20111;-41
2022/09/21 07:01:07;;;;;;;0.40;0.40;;;21.30;57.10;;;;;;5003261;28;20037;-42
2022/09/21 07:03:33;;;;;;;0.30;0.30;;;21.30;57.20;;;;;;5000309;28;20046;-42
2022/09/21 07:06:00;;;;;;;0.30;0.20;;;21.30;57.10;;;;;;5000556;28;20490;-41
2022/09/21 07:08:25;;;;;;;0.43;0.30;;;21.30;57.20;;;;;;5003927;28;20499;-42
2022/09/21 07:10:51;;;;;;;0.60;0.20;;;21.30;57.20;;;;;;5004434;28;20034;-42
2022/09/21 07:13:17;;;;;;;1.08;0.20;;;21.30;57.30;;;;;;5001212;28;20045;-42
2022/09/21 07:15:43;;;;;;;0.30;0.20;;;21.30;57.50;;;;;;5004051;28;20061;-42
2022/09/21 07:18:12;;;;;;;0.17;0.17;;;21.30;57.30;;;;;;5002124;28;20103;-43
2022/09/21 07:20:38;;;;;;;2.20;0.20;;;21.30;57.30;;;;;;5000444;28;20415;-42
2022/09/21 07:23:30;;;;;;;0.20;0.20;;;21.30;57.40;;;;;;5002740;28;20030;-41
2022/09/21 07:26:00;;;;;;;0.30;0.30;;;21.30;57.50;;;;;;5004655;28;20048;-42
2022/09/21 07:28:26;;;;;;;0.40;0.20;;;21.40;57.50;;;;;;4999672;28;20042;-42
2022/09/21 07:30:51;;;;;;;0.20;0.20;;;21.40;57.50;;;;;;5003875;28;20053;-42
2022/09/21 07:33:17;;;;;;;0.57;0.32;;;21.40;57.50;;;;;;5002962;28;20056;-41
2022/09/21 07:35:50;;;;;;;0.30;0.30;;;21.40;57.50;;;;;;5003638;28;20136;-42
2022/09/21 07:38:15;;;;;;;0.20;0.20;;;21.30;57.50;;;;;;5003333;28;20100;-42
2022/09/21 07:40:41;;;;;;;0.30;0.20;;;21.40;57.60;;;;;;5005588;28;20038;-42
2022/09/21 07:43:06;;;;;;;0.90;0.22;;;21.40;57.70;;;;;;4998321;28;20053;-41
2022/09/21 07:45:32;;;;;;;0.10;0.10;;;21.40;57.70;;;;;;5003549;28;20578;-42
2022/09/21 07:48:02;;;;;;;0.30;0.30;;;21.30;57.80;;;;;;5003177;28;20034;-42
2022/09/21 07:50:28;;;;;;;0.20;0.20;;;21.30;57.90;;;;;;5003880;28;20057;-41
2022/09/21 07:52:53;;;;;;;0.30;0.30;;;21.30;57.90;;;;;;5003321;28;20091;-42
2022/09/21 07:55:19;;;;;;;0.20;0.20;;;21.30;58.10;;;;;;5002836;28;20081;-42
2022/09/21 08:00:33;;;;;;;;;;;21.30;58.10;;;;;;4979404;28;20076;-42
2022/09/21 08:03:00;;;;;;;0.10;0.10;;;21.30;58.10;;;;;;4977559;28;20298;-42
2022/09/21 08:05:26;;;;;;;0.20;0.20;;;21.40;58.00;;;;;;4992879;28;20044;-43
2022/09/21 08:07:54;;;;;;;0.30;0.25;;;21.40;58.10;;;;;;5006589;28;20117;-42
2022/09/21 08:10:21;;;;;;;0.30;0.20;;;21.40;58.10;;;;;;5005998;28;20050;-42
2022/09/21 08:12:47;;;;;;;0.20;0.20;;;21.30;58.70;;;;;;5006657;28;20042;-42
2022/09/21 08:15:13;;;;;;;0.52;0.30;;;21.40;58.20;;;;;;5005291;28;20382;-41
2022/09/21 08:17:39;;;;;;;0.30;0.30;;;21.40;58.20;;;;;;5006951;28;20481;-42
2022/09/21 08:20:05;;;;;;;0.20;0.20;;;21.40;58.30;;;;;;5006451;28;20116;-40
2022/09/21 08:22:31;;;;;;;0.20;0.20;;;21.30;58.30;;;;;;5018949;28;20045;-52
2022/09/21 08:24:56;;;;;;;0.10;0.10;;;21.30;58.30;;;;;;5007009;28;20052;-45
2022/09/21 08:27:24;;;;;;;0.10;0.10;;;21.30;58.30;;;;;;5004830;28;20268;-40
2022/09/21 08:29:50;;;;;;;0.40;0.22;;;21.40;58.30;;;;;;5004795;28;20045;-56
2022/09/21 08:32:15;;;;;;;0.17;0.17;;;21.40;58.20;;;;;;5005658;28;20042;-46
2022/09/21 08:34:41;;;;;;;0.10;0.10;;;21.40;58.30;;;;;;5006425;28;20566;-49
2022/09/21 08:37:06;;;;;;;0.30;0.20;;;21.40;58.20;;;;;;5006062;28;20053;-51
2022/09/21 08:39:32;;;;;;;2.13;0.20;;;21.40;58.00;;;;;;5005186;28;20053;-41
2022/09/21 08:42:06;;;;;;;0.38;0.20;;;21.40;58.00;;;;;;5004160;28;20042;-40
2022/09/21 08:44:33;;;;;;;;;;;21.50;57.90;;;;;;5005002;28;20058;-41
2022/09/21 08:47:21;;;;;;;0.20;0.20;;;21.40;58.00;;;;;;5005290;28;19918;-58
2022/09/21 08:49:52;;;;;;;0.20;0.20;;;21.50;58.00;;;;;;5006750;28;20389;-45
2022/09/21 08:52:18;;;;;;;0.20;0.20;;;21.50;58.00;;;;;;5020899;28;20373;-45
2022/09/21 08:54:52;;;;;;;0.20;0.20;;;21.50;58.00;;;;;;5020315;28;20055;-49
2022/09/21 08:57:17;;;;;;;;;;;21.50;58.00;;;;;;5017448;28;20073;-49
2022/09/21 08:59:45;;;;;;;0.10;0.10;;;21.50;58.00;;;;;;5006087;28;26130;-47
2022/09/21 09:02:44;;;;;;;0.28;0.28;;;21.50;58.00;;;;;;5005898;28;20095;-46
2022/09/21 09:05:42;;;;;;;0.22;0.22;;;21.60;58.00;;;;;;5007408;28;20546;-46
2022/09/21 09:08:15;;;;;;;0.20;0.20;;;21.50;58.00;;;;;;5002113;28;20050;-43
2022/09/21 09:10:44;;;;;;;0.20;0.20;;;21.60;57.90;;;;;;5006765;28;20123;-50
2022/09/21 09:13:15;;;;;;;0.20;0.20;;;21.60;57.90;;;;;;5017709;28;20053;-44
2022/09/21 09:15:51;;;;;;;0.55;0.30;;;21.60;58.50;;;;;;5022539;28;20050;-46
2022/09/21 09:18:30;;;;;;;0.30;0.20;;;21.60;57.90;;;;;;5017849;28;20081;-45
2022/09/21 09:20:57;;;;;;;0.22;0.22;;;21.60;57.90;;;;;;5019000;28;20026;-49
2022/09/21 09:23:24;;;;;;;0.10;0.10;;;21.60;57.80;;;;;;5003855;28;20069;-60
2022/09/21 09:25:51;;;;;;;0.15;0.15;;;21.60;57.80;;;;;;5008663;28;20037;-56
2022/09/21 09:28:41;;;;;;;0.20;0.20;;;21.70;57.90;;;;;;5015099;28;20511;-52
2022/09/21 09:31:15;;;;;;;0.30;0.30;;;21.70;57.80;;;;;;5026405;28;20038;-54
2022/09/21 09:34:06;;;;;;;0.10;0.10;;;21.70;57.80;;;;;;5017004;28;20042;-55
2022/09/21 09:36:32;;;;;;;0.20;0.20;;;21.70;57.70;;;;;;4991804;28;20049;-59
2022/09/21 09:39:00;;;;;;;0.30;0.22;;;21.70;57.70;;;;;;5004032;28;20503;-58
2022/09/21 09:41:52;;;;;;;0.20;0.20;;;21.70;57.70;;;;;;5017936;28;20137;-51
2022/09/21 09:44:29;;;;;;;0.20;0.20;;;21.70;57.70;;;;;;5031234;28;20086;-47
2022/09/21 09:47:16;;;;;;;0.20;0.20;;;21.70;57.80;;;;;;5007372;28;20050;-55
2022/09/21 09:49:56;;;;;;;0.10;0.10;;;21.80;57.70;;;;;;5004674;28;20065;-56
2022/09/21 09:52:21;;;;;;;0.20;0.20;;;21.80;57.70;;;;;;5003711;28;20037;-51
2022/09/21 09:54:47;;;;;;;0.20;0.20;;;21.80;57.70;;;;;;5004254;28;20410;-53
2022/09/21 09:57:13;;;;;;;0.20;0.20;;;21.80;57.70;;;;;;5029957;28;20045;-38
2022/09/21 09:59:43;;;;;;;0.10;0.10;;;21.80;57.70;;;;;;5003953;28;20111;-43
2022/09/21 10:02:23;;;;;;;0.10;0.10;;;21.80;57.70;;;;;;4990686;28;20225;-50
2022/09/21 10:05:04;;;;;;;0.30;0.30;;;21.80;57.60;;;;;;5028980;28;20035;-46
2022/09/21 10:07:44;;;;;;;0.10;0.10;;;21.90;57.70;;;;;;5003881;28;20060;-55
2022/09/21 10:10:28;;;;;;;0.15;0.15;;;21.90;57.70;;;;;;5001750;28;20495;-51
2022/09/21 10:12:54;;;;;;;0.30;0.30;;;21.90;57.70;;;;;;5003279;28;20510;-49
2022/09/21 10:15:20;;;;;;;0.20;0.20;;;21.90;57.70;;;;;;5006320;28;20042;-41
2022/09/21 10:17:46;;;;;;;0.20;0.20;;;21.90;57.70;;;;;;5002988;28;20499;-46
2022/09/21 10:20:16;;;;;;;0.20;0.20;;;21.90;57.70;;;;;;5005807;28;20041;-40
2022/09/21 10:22:45;;;;;;;0.10;0.10;;;21.90;57.70;;;;;;5004292;28;20041;-52
2022/09/21 10:25:15;;;;;;;0.10;0.10;;;21.90;57.70;;;;;;5004134;28;20107;-53
2022/09/21 10:27:42;;;;;;;0.17;0.17;;;21.90;57.70;;;;;;5015784;28;20038;-40
2022/09/21 10:30:34;;;;;;;0.17;0.17;;;22.00;57.80;;;;;;5001730;28;20583;-43
2022/09/21 10:33:00;;;;;;;0.10;0.10;;;22.00;58.40;;;;;;5016471;28;20054;-42
2022/09/21 10:35:26;;;;;;;0.20;0.20;;;22.00;57.80;;;;;;5003345;28;20410;-42
2022/09/21 10:38:18;;;;;;;0.13;0.13;;;22.00;57.80;;;;;;4988692;28;20049;-50
2022/09/21 10:40:44;;;;;;;0.15;0.15;;;22.00;58.40;;;;;;5005244;28;20026;-41
2022/09/21 10:43:24;;;;;;;0.10;0.10;;;22.00;58.40;;;;;;5002609;28;20392;-53
2022/09/21 10:45:54;;;;;;;0.30;0.20;;;22.00;57.80;;;;;;5001978;28;20033;-54
2022/09/21 10:48:21;;;;;;;0.20;0.20;;;22.00;57.80;;;;;;5017379;28;20118;-46
2022/09/21 10:50:50;;;;;;;0.10;0.10;;;22.10;57.80;;;;;;5029118;28;20550;-40
2022/09/21 10:53:30;;;;;;;0.10;0.10;;;22.00;58.40;;;;;;5016898;28;20045;-44
2022/09/21 10:56:19;;;;;;;0.13;0.13;;;22.10;57.80;;;;;;5004610;28;20041;-38
2022/09/21 10:59:20;;;;;;;0.20;0.20;;;22.10;57.80;;;;;;5001953;28;20046;-39
2022/09/21 11:01:50;;;;;;;0.20;0.20;;;22.10;57.70;;;;;;5005252;28;20037;-47
2022/09/21 11:04:23;;;;;;;0.10;0.10;;;22.10;57.70;;;;;;5002208;28;20062;-38
2022/09/21 11:07:36;;;;;;;0.15;0.15;;;22.10;57.70;;;;;;5015839;28;20062;-51
2022/09/21 11:10:25;;;;;;;0.20;0.20;;;22.10;57.70;;;;;;5011834;28;20514;-41
2022/09/21 11:13:08;;;;;;;0.10;0.10;;;22.10;57.70;;;;;;5001243;28;20151;-44
2022/09/21 11:16:12;;;;;;;0.15;0.15;;;22.10;57.70;;;;;;5016517;28;20050;-60
2022/09/21 11:18:50;;;;;;;0.10;0.10;;;22.20;57.70;;;;;;4999645;28;20034;-54
2022/09/21 11:21:37;;;;;;;0.15;0.10;;;22.20;57.70;;;;;;5019136;28;20104;-47
2022/09/21 11:24:11;;;;;;;0.10;0.10;;;22.20;57.70;;;;;;5025553;28;20444;-46
2022/09/21 11:26:47;;;;;;;0.10;0.10;;;22.20;57.70;;;;;;5004776;28;20144;-46
2022/09/21 11:29:22;;;;;;;0.20;0.20;;;22.20;57.60;;;;;;5001661;28;20045;-54
2022/09/21 11:32:08;;;;;;;0.10;0.10;;;22.20;57.60;;;;;;5004528;28;20053;-55
2022/09/21 11:34:59;;;;;;;0.10;0.10;;;22.20;57.60;;;;;;5000240;28;20037;-44
2022/09/21 11:37:46;;;;;;;0.28;0.10;;;22.20;57.60;;;;;;5029259;28;20038;-55
2022/09/21 11:40:40;;;;;;;0.10;0.10;;;22.30;57.70;;;;;;5020759;28;20507;-58
2022/09/21 11:43:53;;;;;;;0.10;0.10;;;22.30;57.60;;;;;;5020159;28;20050;-40
2022/09/21 11:46:49;;;;;;;0.10;0.10;;;22.30;57.60;;;;;;5001604;28;20042;-47
2022/09/21 11:49:47;;;;;;;0.10;0.10;;;22.30;57.60;;;;;;4995350;28;20104;-41
2022/09/21 11:52:50;;;;;;;0.10;0.10;;;22.30;57.60;;;;;;5003974;28;20046;-33
2022/09/21 11:55:43;;;;;;;0.10;0.10;;;22.30;57.60;;;;;;5004675;28;20042;-47
2022/09/21 11:58:46;;;;;;;0.10;0.10;;;22.30;57.60;;;;;;5031863;28;20046;-50
2022/09/21 12:01:36;;;;;;;0.10;0.10;;;22.30;57.60;;;;;;5007641;28;20030;-51
2022/09/21 12:04:16;;;;;;;0.10;0.10;;;22.40;57.60;;;;;;5001421;28;20053;-48
2022/09/21 12:07:00;;;;;;;0.10;0.10;;;22.40;57.60;;;;;;5021592;28;20050;-52
2022/09/21 12:09:46;;;;;;;0.10;0.10;;;22.40;57.60;;;;;;5002314;28;20058;-52
2022/09/21 12:12:25;;;;;;;0.10;0.10;;;22.40;58.00;;;;;;5006493;28;20039;-48
2022/09/21 12:14:56;;;;;;;0.10;0.10;;;22.40;57.50;;;;;;5019343;28;20089;-57
2022/09/21 12:17:48;;;;;;;0.20;0.20;;;22.40;57.50;;;;;;5022648;28;20045;-45
2022/09/21 12:20:35;;;;;;;0.10;0.10;;;22.40;57.60;;;;;;4999252;28;20511;-27
2022/09/21 12:23:09;;;;;;;0.13;0.13;;;22.40;57.50;;;;;;5006932;28;20045;-50
2022/09/21 12:25:39;;;;;;;0.20;0.20;;;22.40;57.50;;;;;;5021557;28;20061;-47
2022/09/21 12:28:08;;;;;;;0.10;0.10;;;22.40;57.40;;;;;;5018863;28;20077;-49
2022/09/21 12:30:34;;;;;;;0.20;0.20;;;22.40;57.50;;;;;;5020170;28;20041;-58
2022/09/21 12:33:21;;;;;;;0.20;0.20;;;22.40;57.50;;;;;;5019364;28;20057;-42
2022/09/21 12:36:09;;;;;;;0.10;0.10;;;22.40;57.50;;;;;;5003697;28;20788;-42
2022/09/21 12:38:40;;;;;;;0.20;0.20;;;22.50;57.50;;;;;;5018765;28;20080;-55
2022/09/21 12:41:18;;;;;;;0.10;0.10;;;22.50;57.50;;;;;;5005944;28;20034;-49
2022/09/21 12:43:48;;;;;;;0.00;0.00;;;22.50;57.50;;;;;;5022651;28;20132;-54
2022/09/21 12:46:23;;;;;;;0.10;0.10;;;22.50;57.50;;;;;;5006196;28;20041;-55
2022/09/21 12:48:49;;;;;;;0.20;0.20;;;22.50;57.50;;;;;;5016810;28;20042;-51
2022/09/21 12:51:24;;;;;;;0.08;0.08;;;22.50;57.40;;;;;;5005796;28;20049;-57
2022/09/21 12:53:52;;;;;;;0.10;0.10;;;22.50;57.40;;;;;;5003210;28;20037;-50
2022/09/21 12:56:17;;;;;;;0.20;0.20;;;22.50;57.40;;;;;;5021086;28;20037;-53
2022/09/21 12:58:56;;;;;;;0.10;0.10;;;22.50;57.40;;;;;;5006498;28;21215;-40
2022/09/21 13:01:25;;;;;;;1.00;0.10;;;22.50;57.40;;;;;;5005196;28;20064;-38
2022/09/21 13:04:42;;;;;;;0.10;0.10;;;22.50;57.30;;;;;;5001364;28;20081;-37
2022/09/21 13:07:31;;;;;;;0.13;0.13;;;22.50;57.40;;;;;;4955889;28;20034;-38
2022/09/21 13:09:58;;;;;;;0.10;0.10;;;22.50;57.30;;;;;;4968613;28;20046;-39
2022/09/21 13:12:33;;;;;;;0.10;0.10;;;22.50;57.20;;;;;;4957351;28;20598;-38
2022/09/21 13:15:04;;;;;;;0.10;0.10;;;22.50;57.30;;;;;;4985115;28;20057;-38
2022/09/21 13:17:31;;;;;;;0.10;0.10;;;22.50;57.30;;;;;;4958182;28;20233;-37
2022/09/21 13:20:02;;;;;;;0.10;0.10;;;22.50;57.30;;;;;;4977768;28;20047;-37